createdAt,value
2022-08-05T00:02:50.381Z,101285.28
2022-08-05T00:06:05.468Z,101286.56
2022-08-05T00:09:50.776Z,101291.16
2022-08-05T00:13:04.536Z,101304.69
2022-08-05T00:16:08.705Z,101308.06
2022-08-05T00:19:25.027Z,101308.31
2022-08-05T00:22:36.284Z,101308.25
2022-08-05T00:25:50.762Z,101305.81
2022-08-05T00:29:37.863Z,101302.06
2022-08-05T00:33:07.514Z,101304.50
2022-08-05T00:37:10.545Z,101304.84
2022-08-05T00:40:03.644Z,101305.94
2022-08-05T00:46:43.417Z,101308.19
2022-08-05T00:50:08.398Z,101324.06
2022-08-05T00:54:00.868Z,101320.69
2022-08-05T00:56:51.733Z,101326.84
2022-08-05T01:00:05.198Z,101320.75
2022-08-05T01:03:33.366Z,101320.44
2022-08-05T01:06:48.687Z,101318.75
2022-08-05T01:09:56.733Z,101320.44
2022-08-05T01:13:13.308Z,101330.09
2022-08-05T01:16:44.471Z,101315.13
2022-08-05T01:20:14.214Z,101314.28
2022-08-05T01:23:39.768Z,101325.56
2022-08-05T01:27:26.649Z,101302.97
2022-08-05T01:30:53.570Z,101311.78
2022-08-05T01:34:29.886Z,101281.94
2022-08-05T01:37:44.281Z,101257.06
2022-08-05T01:40:59.487Z,101257.91
2022-08-05T01:44:19.275Z,101257.06
2022-08-05T01:47:43.441Z,101250.81
2022-08-05T01:51:14.279Z,101227.28
2022-08-05T01:54:18.433Z,101237.81
2022-08-05T01:58:29.306Z,101206.25
2022-08-05T02:04:55.455Z,101193.59
2022-08-05T02:08:05.662Z,101181.22
2022-08-05T02:11:16.596Z,101189.47
2022-08-05T02:14:44.020Z,101194.56
2022-08-05T02:18:32.992Z,101185.72
2022-08-05T02:21:38.023Z,101173.28
2022-08-05T02:25:04.437Z,101167.44
2022-08-05T02:28:29.149Z,101145.06
2022-08-05T02:31:54.939Z,101157.44
2022-08-05T02:35:19.157Z,101154.31
2022-08-05T02:38:43.284Z,101152.94
2022-08-05T02:42:00.698Z,101154.34
2022-08-05T02:45:08.139Z,101216.72
2022-08-05T02:48:18.736Z,101300.31
2022-08-05T02:52:04.496Z,101269.66
2022-08-05T02:55:12.294Z,101252.13
2022-08-05T02:58:27.149Z,101247.31
2022-08-05T03:01:38.934Z,101254.47
2022-08-05T03:04:42.825Z,101237.63
2022-08-05T03:08:04.501Z,101222.84
2022-08-05T03:11:55.693Z,101218.69
2022-08-05T03:14:48.377Z,101213.59
2022-08-05T03:17:57.659Z,101214.50
2022-08-05T03:21:04.518Z,101192.59
2022-08-05T03:24:27.544Z,101216.00
2022-08-05T03:27:58.892Z,101245.75
2022-08-05T03:31:00.680Z,101240.75
2022-08-05T03:34:06.440Z,101252.25
2022-08-05T03:41:03.951Z,101244.53
2022-08-05T03:47:30.580Z,101235.16
2022-08-05T03:50:43.274Z,101224.84
2022-08-05T03:55:50.631Z,101231.81
2022-08-05T03:57:41.794Z,101229.28
2022-08-05T04:00:51.579Z,101219.16
2022-08-05T04:07:58.562Z,101216.34
2022-08-05T04:11:10.691Z,101212.94
2022-08-05T04:14:18.186Z,101218.03
2022-08-05T04:17:55.625Z,101229.47
2022-08-05T04:21:00.172Z,101225.25
2022-08-05T04:24:19.613Z,101227.88
2022-08-05T04:27:57.368Z,101223.56
2022-08-05T04:31:01.712Z,101251.13
2022-08-05T04:34:33.966Z,101235.44
2022-08-05T04:37:42.259Z,101260.41
2022-08-05T04:41:10.154Z,101259.84
2022-08-05T04:44:10.883Z,101256.97
2022-08-05T04:47:23.617Z,101263.22
2022-08-05T04:50:34.671Z,101270.03
2022-08-05T04:53:45.714Z,101274.50
2022-08-05T04:56:48.661Z,101279.75
2022-08-05T04:59:58.549Z,101296.47
2022-08-05T05:03:03.141Z,101303.16
2022-08-05T05:06:37.051Z,101313.56
2022-08-05T05:09:38.190Z,101313.66
2022-08-05T05:12:52.335Z,101314.88
2022-08-05T05:15:59.318Z,101320.25
2022-08-05T05:19:23.472Z,101312.72
2022-08-05T05:22:33.005Z,101307.81
2022-08-05T05:25:50.300Z,101316.03
2022-08-05T05:28:54.024Z,101295.91
2022-08-05T05:32:15.589Z,101292.81
2022-08-05T05:35:34.184Z,101288.31
2022-08-05T06:00:34.083Z,101292.47
2022-08-05T06:03:54.042Z,101312.31
2022-08-05T06:07:04.968Z,101341.72
2022-08-05T06:10:10.133Z,101340.91
2022-08-05T06:13:21.006Z,101335.50
2022-08-05T06:16:32.846Z,101334.13
2022-08-05T06:19:57.080Z,101334.50
2022-08-05T06:23:04.911Z,101315.75
2022-08-05T06:26:24.971Z,101309.59
2022-08-05T06:48:37.246Z,101318.63
2022-08-05T06:51:29.068Z,101313.19
2022-08-05T06:54:41.556Z,101321.22
2022-08-05T08:52:05.770Z,101363.16
2022-08-05T09:36:55.403Z,101412.69
2022-08-05T09:53:54.681Z,101389.72
2022-08-05T10:36:43.593Z,101423.28
2022-08-05T10:53:17.568Z,101438.19
2022-08-05T10:56:26.391Z,101435.34
2022-08-05T11:00:03.062Z,101440.09
2022-08-05T11:03:24.419Z,101424.16
2022-08-05T11:06:47.321Z,101435.88
2022-08-05T11:10:10.047Z,101478.97
2022-08-05T11:13:12.297Z,101485.22
2022-08-05T11:16:56.081Z,101497.13
2022-08-05T11:20:16.926Z,101491.16
2022-08-05T11:24:04.819Z,101477.53
2022-08-05T11:27:51.154Z,101484.75
2022-08-05T11:31:56.778Z,101492.72
2022-08-05T11:35:09.836Z,101490.97
2022-08-05T11:38:29.583Z,101497.72
2022-08-05T11:42:01.232Z,101479.94
2022-08-05T11:45:27.055Z,101497.78
2022-08-05T11:48:39.124Z,101518.41
2022-08-05T11:51:49.801Z,101514.22
2022-08-05T11:55:07.056Z,101515.22
2022-08-05T11:58:11.830Z,101508.94
2022-08-05T12:01:21.839Z,101525.81
2022-08-05T12:04:29.823Z,101527.81
2022-08-05T12:08:03.275Z,101530.69
2022-08-05T12:11:39.678Z,101519.94
2022-08-05T12:15:19.196Z,101527.44
2022-08-05T12:20:26.026Z,101517.50
2022-08-05T12:22:52.772Z,101533.91
2022-08-05T12:26:13.953Z,101543.97
2022-08-05T12:29:23.592Z,101538.88
2022-08-05T12:32:32.872Z,101543.00
2022-08-05T12:35:39.437Z,101537.47
2022-08-05T12:38:54.105Z,101547.25
2022-08-05T12:45:42.555Z,101534.97
2022-08-05T12:48:53.935Z,101542.72
2022-08-05T12:52:23.802Z,101540.16
2022-08-05T12:55:41.590Z,101544.78
2022-08-05T12:59:00.953Z,101549.59
2022-08-05T13:02:35.348Z,101545.38
2022-08-05T13:09:37.737Z,101538.34
2022-08-05T15:18:38.669Z,101544.63
2022-08-05T15:22:02.280Z,101541.31
2022-08-05T15:25:53.292Z,101534.72
2022-08-05T15:28:58.504Z,101533.00
2022-08-05T15:40:59.707Z,101603.22
2022-08-05T15:43:57.848Z,101607.03
2022-08-05T15:47:04.619Z,101619.31
2022-08-05T15:50:09.120Z,101620.16
2022-08-05T15:53:20.191Z,101627.94
2022-08-05T15:56:22.789Z,101626.09
2022-08-05T16:07:53.581Z,101623.22
2022-08-05T16:11:40.214Z,101627.25
2022-08-05T16:19:09.838Z,101620.34
2022-08-05T16:22:15.575Z,101626.31
2022-08-05T16:25:26.841Z,101622.97
2022-08-05T16:28:44.447Z,101634.69
2022-08-05T16:34:51.127Z,101632.06
2022-08-05T16:38:03.315Z,101633.53
2022-08-05T17:58:02.979Z,101758.53
2022-08-05T18:01:49.428Z,101752.50
2022-08-05T18:04:55.072Z,101757.41
2022-08-05T18:08:25.787Z,101767.28
2022-08-05T18:11:36.032Z,101763.13
2022-08-05T18:14:45.985Z,101774.91
2022-08-05T18:20:56.453Z,101780.59
2022-08-05T18:23:58.643Z,101784.41
2022-08-05T18:27:05.646Z,101784.47
2022-08-05T18:30:30.281Z,101801.50
2022-08-05T18:33:59.060Z,101797.34
2022-08-05T18:37:12.632Z,101795.78
2022-08-05T18:41:52.775Z,101798.63
2022-08-05T18:44:11.631Z,101803.13
2022-08-05T18:47:22.609Z,101812.91
2022-08-05T18:50:42.272Z,101813.94
2022-08-05T18:57:52.756Z,101821.28
2022-08-05T19:01:01.358Z,101827.72
2022-08-05T19:04:12.253Z,101831.38
2022-08-05T19:07:18.050Z,101838.28
2022-08-05T19:10:27.960Z,101841.16
2022-08-05T19:13:38.635Z,101846.50
2022-08-05T19:16:47.260Z,101851.00
2022-08-05T19:19:59.544Z,101862.41
2022-08-05T19:24:03.250Z,101868.66
2022-08-05T19:26:31.931Z,101870.44
2022-08-05T19:29:47.233Z,101885.41
2022-08-05T19:32:51.725Z,101882.84
2022-08-05T19:36:02.984Z,101889.94
2022-08-05T19:39:07.775Z,101897.09
2022-08-05T19:42:34.954Z,101904.03
2022-08-05T21:20:53.801Z,102004.34
2022-08-05T21:24:00.169Z,102012.28
2022-08-05T21:27:14.064Z,102009.59
2022-08-05T21:30:18.419Z,102012.19
2022-08-05T21:33:39.900Z,102012.25
2022-08-05T21:36:42.780Z,102008.91
2022-08-05T21:39:53.708Z,102019.34
2022-08-05T21:43:05.718Z,102021.13
2022-08-05T21:46:11.749Z,102018.59
2022-08-05T21:49:48.434Z,102021.16
2022-08-05T21:53:08.318Z,102021.06
2022-08-05T21:56:28.335Z,102021.97
2022-08-05T21:59:48.038Z,102020.28
2022-08-05T22:03:09.825Z,102022.03
2022-08-05T22:06:14.343Z,102019.41
2022-08-05T22:09:45.958Z,102015.13
2022-08-05T22:12:53.211Z,102016.88
2022-08-05T22:16:41.421Z,102025.53
2022-08-05T22:20:01.660Z,102029.91
2022-08-05T22:24:00.996Z,102034.38
2022-08-05T22:27:17.245Z,102040.44
2022-08-05T22:30:32.093Z,102038.75
2022-08-05T22:33:55.818Z,102036.06
2022-08-05T22:36:58.291Z,102043.91
2022-08-05T22:40:07.662Z,102046.59
2022-08-05T22:43:13.679Z,102047.50
2022-08-05T22:46:23.447Z,102045.75
2022-08-05T22:50:19.962Z,102044.91
2022-08-05T22:53:02.794Z,102053.47
2022-08-05T22:56:10.019Z,102048.34
2022-08-05T22:59:46.265Z,102049.28
2022-08-05T23:02:46.460Z,102060.63
2022-08-05T23:05:54.818Z,102057.13
2022-08-05T23:08:57.290Z,102058.03
2022-08-05T23:12:25.246Z,102064.09
2022-08-05T23:15:35.215Z,102067.53
2022-08-05T23:18:42.847Z,102069.31
2022-08-05T23:21:48.515Z,102069.28
2022-08-05T23:24:55.778Z,102075.41
2022-08-05T23:28:00.871Z,102071.94
2022-08-05T23:31:17.013Z,102076.28
2022-08-05T23:34:24.365Z,102082.38
2022-08-05T23:37:36.474Z,102087.53
2022-08-05T23:40:50.087Z,102097.94
2022-08-05T23:44:06.199Z,102104.91
2022-08-05T23:47:14.642Z,102103.19
2022-08-05T23:50:26.520Z,102105.78
2022-08-05T23:53:28.326Z,102104.06
2022-08-05T23:56:52.968Z,102109.28
